Antes Fort, Pennsylvania
Current Conditions -  °F | °C
As of 5:54 AM on Friday 24 Oct 2014 (Local Time) from KIPT Reporting Station
Overcast Overcast  
Wind Chill: 13°   Ceiling: 4400
Heat Index: 13°   Visibility: 10mi
Dew Point:   Wind: 14mph
Humidity: 62%   Direction: 270°W
Pressure: 29.93"   Gusts: NA
Location:  41.19°N, 77.22°W
Report Text: KIPT 240954Z AUTO 27012KT 10SM OVC044 13/06 A2993 RMK AO2 SLP135 T01280056
Loading
Personal Weather Stations






























Interactive Weather Map
Tropical Storm Tracking
New forecast layout! Learn more

10-Day Weather Forecast

Advertisements
Track Severe Weather on mobile